Time;durP1;ratioP1;P1;durP2;ratioP2;P2;SDS_P1;SDS_P2;PMS_P1;PMS_P2;Temp;Humidity;BMP_temperature;BMP_pressure;BME280_temperature;BME280_humidity;BME280_pressure;Samples;Min_cycle;Max_cycle;Signal;HPM_P1;HPM_P2
2021/05/21 00:05:01;;;;;;;7.10;3.25;;;11.10;94.70;;;;;;5016467;28;20561;-86
2021/05/21 00:10:50;;;;;;;6.43;2.88;;;11.00;94.70;;;;;;5016581;28;20041;-86
2021/05/21 00:16:41;;;;;;;5.50;2.45;;;11.00;95.10;;;;;;5021992;28;20079;-87
2021/05/21 00:26:24;;;;;;;5.00;2.30;;;11.10;95.30;;;;;;5016385;28;20486;-87
2021/05/21 00:32:12;;;;;;;7.22;2.90;;;11.20;95.30;;;;;;5016153;28;20041;-87
2021/05/21 00:38:02;;;;;;;6.20;2.65;;;11.20;95.30;;;;;;5015839;28;20048;-86
2021/05/21 00:43:55;;;;;;;6.20;2.85;;;11.20;95.30;;;;;;5015656;28;20052;-86
2021/05/21 00:49:48;;;;;;;5.70;2.85;;;11.20;95.20;;;;;;5015524;28;20072;-87
2021/05/21 00:55:37;;;;;;;6.03;2.72;;;11.20;95.20;;;;;;5015710;28;20033;-86
2021/05/21 01:01:38;;;;;;;8.85;3.33;;;11.00;94.70;;;;;;5014724;28;20059;-87
2021/05/21 01:07:27;;;;;;;6.10;2.70;;;10.90;94.80;;;;;;5015521;28;20398;-86
2021/05/21 01:13:16;;;;;;;5.43;2.47;;;10.70;94.90;;;;;;5015389;28;20041;-86
2021/05/21 01:19:06;;;;;;;5.53;2.35;;;10.70;95.00;;;;;;5015219;28;20100;-86
2021/05/21 01:28:56;;;;;;;4.32;2.30;;;10.60;95.00;;;;;;5015550;28;20539;-86
2021/05/21 01:34:45;;;;;;;5.90;2.80;;;10.50;95.10;;;;;;5015261;28;20032;-86
2021/05/21 01:40:39;;;;;;;7.97;2.85;;;10.50;95.10;;;;;;5015826;28;20461;-87
2021/05/21 01:46:32;;;;;;;7.13;2.63;;;10.50;95.00;;;;;;5015146;28;20528;-86
2021/05/21 01:52:20;;;;;;;5.43;2.60;;;10.40;94.90;;;;;;5014688;28;20083;-86
2021/05/21 01:58:10;;;;;;;7.28;3.28;;;10.30;94.80;;;;;;5014337;28;20489;-85
2021/05/21 02:03:59;;;;;;;6.53;3.20;;;10.20;94.80;;;;;;5014223;28;20505;-85
2021/05/21 02:09:55;;;;;;;7.60;3.40;;;10.10;94.90;;;;;;5014429;28;20429;-85
2021/05/21 02:15:43;;;;;;;7.40;3.00;;;10.00;95.00;;;;;;5014463;28;20032;-86
2021/05/21 02:21:33;;;;;;;6.25;2.70;;;10.10;95.00;;;;;;5014056;28;20501;-86
2021/05/21 02:31:23;;;;;;;5.38;2.72;;;9.90;94.70;;;;;;5014157;28;20040;-86
2021/05/21 02:37:13;;;;;;;6.43;2.90;;;9.80;94.90;;;;;;5014094;28;20044;-86
2021/05/21 02:43:01;;;;;;;5.13;2.55;;;9.80;95.10;;;;;;5013955;28;20080;-86
2021/05/21 02:48:50;;;;;;;5.97;2.60;;;9.90;95.50;;;;;;5013863;28;20061;-85
2021/05/21 02:54:39;;;;;;;4.18;2.20;;;10.10;95.60;;;;;;5013657;28;20037;-85
2021/05/21 03:00:27;;;;;;;7.38;2.40;;;10.20;95.50;;;;;;5015858;28;20100;-85
2021/05/21 03:06:16;;;;;;;4.50;2.25;;;10.20;95.40;;;;;;5013809;28;20029;-85
2021/05/21 03:12:06;;;;;;;5.00;2.17;;;10.40;95.70;;;;;;5013989;28;20033;-85
2021/05/21 03:17:56;;;;;;;4.75;2.17;;;10.50;95.70;;;;;;5013772;28;20524;-85
2021/05/21 03:23:44;;;;;;;5.28;2.35;;;10.70;95.80;;;;;;5013419;28;20053;-85
2021/05/21 03:33:27;;;;;;;4.18;2.10;;;10.80;95.70;;;;;;5017368;28;20045;-85
2021/05/21 03:39:18;;;;;;;4.45;2.65;;;10.90;95.70;;;;;;5016958;28;20107;-86
2021/05/21 03:45:07;;;;;;;4.40;2.15;;;11.00;95.70;;;;;;5017094;28;20133;-86
2021/05/21 03:50:57;;;;;;;7.43;2.60;;;11.00;95.60;;;;;;5016721;28;20037;-87
2021/05/21 03:56:45;;;;;;;3.97;2.22;;;11.10;95.60;;;;;;5016623;28;20125;-87
2021/05/21 04:02:33;;;;;;;5.85;2.70;;;11.10;95.50;;;;;;5016672;28;20045;-87
2021/05/21 04:08:22;;;;;;;5.10;2.28;;;11.10;95.40;;;;;;5016696;28;20543;-87
2021/05/21 04:14:10;;;;;;;5.38;2.60;;;11.10;95.30;;;;;;5016439;28;20036;-87
2021/05/21 04:19:59;;;;;;;7.25;2.75;;;11.20;95.50;;;;;;5016456;28;20064;-87
2021/05/21 04:25:49;;;;;;;4.95;2.65;;;11.20;95.50;;;;;;5016135;28;20056;-87
2021/05/21 04:35:32;;;;;;;5.63;2.50;;;11.50;95.70;;;;;;5016086;28;20060;-87
2021/05/21 04:41:24;;;;;;;6.63;2.40;;;11.60;95.70;;;;;;5015800;28;20029;-87
2021/05/21 04:47:13;;;;;;;5.13;2.30;;;11.80;95.70;;;;;;5015951;28;20430;-87
2021/05/21 04:53:03;;;;;;;7.70;2.70;;;11.90;95.90;;;;;;5015745;28;20041;-87
2021/05/21 04:58:52;;;;;;;5.32;2.20;;;12.20;96.00;;;;;;5015417;28;20088;-87
2021/05/21 05:04:40;;;;;;;4.10;1.95;;;12.40;95.90;;;;;;5015285;28;20053;-86
2021/05/21 05:10:31;;;;;;;3.65;2.05;;;12.60;95.90;;;;;;5015245;28;20040;-86
2021/05/21 05:16:19;;;;;;;2.83;1.90;;;12.90;96.00;;;;;;5015161;28;20029;-87
2021/05/21 05:22:23;;;;;;;3.80;1.85;;;13.10;96.20;;;;;;5015190;28;20025;-88
2021/05/21 05:28:15;;;;;;;2.45;1.70;;;13.40;95.90;;;;;;5014884;28;20084;-86
2021/05/21 05:38:05;;;;;;;2.53;1.70;;;13.90;96.10;;;;;;5021109;28;20044;-88
2021/05/21 05:43:54;;;;;;;2.80;1.65;;;14.10;96.10;;;;;;5015934;28;20056;-85
2021/05/21 05:49:42;;;;;;;2.15;1.40;;;14.50;96.20;;;;;;5014605;28;20414;-84
2021/05/21 05:55:30;;;;;;;2.97;1.73;;;14.70;96.00;;;;;;5014555;28;20029;-81
2021/05/21 06:01:19;;;;;;;3.45;1.65;;;14.90;95.90;;;;;;5014703;28;20044;-82
2021/05/21 06:07:45;;;;;;;3.80;1.70;;;15.40;96.50;;;;;;5014490;28;20129;-86
2021/05/21 06:13:33;;;;;;;3.60;1.58;;;15.70;96.00;;;;;;5014116;28;20100;-86
2021/05/21 06:19:22;;;;;;;2.22;1.17;;;16.00;96.20;;;;;;5014027;28;20398;-86
2021/05/21 06:25:12;;;;;;;2.30;1.60;;;16.10;95.90;;;;;;5014146;28;20096;-86
2021/05/21 06:31:04;;;;;;;2.53;1.30;;;16.40;95.90;;;;;;5014121;28;20083;-86
2021/05/21 06:40:56;;;;;;;2.33;1.40;;;16.60;95.80;;;;;;5014081;28;20132;-86
2021/05/21 06:46:50;;;;;;;3.40;1.30;;;16.80;95.60;;;;;;5014204;28;20032;-86
2021/05/21 06:52:43;;;;;;;4.80;1.40;;;17.00;95.70;;;;;;5013776;28;20037;-86
2021/05/21 06:58:38;;;;;;;3.90;1.50;;;17.20;95.60;;;;;;5013564;28;20089;-87
2021/05/21 07:04:31;;;;;;;3.20;1.48;;;17.40;95.60;;;;;;5017548;28;20096;-86
2021/05/21 07:10:22;;;;;;;2.35;1.60;;;17.40;95.30;;;;;;5017751;28;20080;-87
2021/05/21 07:16:14;;;;;;;5.32;2.13;;;17.60;95.40;;;;;;5017344;28;20386;-87
2021/05/21 07:22:10;;;;;;;2.72;1.65;;;17.80;95.50;;;;;;5017468;28;20485;-87
2021/05/21 07:27:59;;;;;;;4.07;1.60;;;18.20;95.80;;;;;;5017087;28;20049;-87
2021/05/21 07:33:50;;;;;;;3.80;1.50;;;18.50;95.30;;;;;;5017321;28;20076;-87
2021/05/21 07:43:40;;;;;;;2.28;1.52;;;18.50;95.20;;;;;;5016938;28;20112;-86
2021/05/21 07:49:29;;;;;;;3.15;1.42;;;18.60;95.20;;;;;;5016989;28;20056;-86
2021/05/21 07:55:22;;;;;;;2.28;1.42;;;18.80;95.10;;;;;;5016885;28;20084;-87
2021/05/21 08:01:14;;;;;;;3.38;1.70;;;18.90;94.90;;;;;;5016755;28;20127;-86
2021/05/21 08:07:03;;;;;;;4.15;1.90;;;18.70;94.40;;;;;;5016628;28;20033;-86
2021/05/21 08:19:40;;;;;;;3.75;1.55;;;19.10;95.30;;;;;;4986811;28;20021;-87
2021/05/21 08:25:29;;;;;;;2.60;1.50;;;19.30;95.10;;;;;;5016390;28;20065;-86
2021/05/21 08:31:19;;;;;;;2.38;1.30;;;19.50;95.20;;;;;;5016301;28;20045;-87
2021/05/21 08:37:08;;;;;;;1.20;1.10;;;19.50;94.70;;;;;;5016065;28;20040;-86
2021/05/21 08:47:01;;;;;;;2.60;1.60;;;19.20;94.70;;;;;;5015777;28;20513;-86
2021/05/21 08:52:50;;;;;;;4.03;1.83;;;19.30;94.90;;;;;;5015577;28;20028;-86
2021/05/21 08:58:40;;;;;;;2.00;1.20;;;19.20;94.60;;;;;;5015856;28;20041;-84
2021/05/21 09:04:58;;;;;;;3.88;1.50;;;19.20;94.70;;;;;;5015434;28;20107;-84
2021/05/21 09:10:47;;;;;;;2.88;1.33;;;19.40;94.90;;;;;;5015580;28;20037;-84
2021/05/21 09:16:38;;;;;;;3.33;1.33;;;19.40;94.70;;;;;;5015609;28;20036;-85
2021/05/21 09:22:27;;;;;;;1.63;1.20;;;19.30;94.70;;;;;;5014323;28;20036;-82
2021/05/21 09:28:39;;;;;;;2.28;1.27;;;19.30;94.80;;;;;;5014902;28;20025;-83
2021/05/21 09:34:35;;;;;;;2.00;1.50;;;19.40;94.90;;;;;;5014703;28;20021;-87
2021/05/21 09:40:32;;;;;;;1.48;1.15;;;19.60;95.20;;;;;;5015988;28;20382;-87
2021/05/21 09:50:51;;;;;;;2.65;1.50;;;19.70;94.60;;;;;;5014846;28;20040;-87
2021/05/21 09:56:40;;;;;;;2.75;1.38;;;19.80;94.60;;;;;;5014752;28;20038;-85
2021/05/21 10:02:30;;;;;;;4.10;1.30;;;19.70;94.60;;;;;;5014962;28;20056;-85
2021/05/21 10:08:19;;;;;;;4.70;1.58;;;19.70;94.40;;;;;;5014723;28;20028;-86
2021/05/21 10:14:08;;;;;;;4.15;1.60;;;19.60;94.60;;;;;;5014419;28;20057;-86
2021/05/21 10:19:57;;;;;;;1.40;1.30;;;19.50;94.40;;;;;;5014413;28;20045;-84
2021/05/21 10:25:49;;;;;;;2.75;1.40;;;19.40;94.30;;;;;;5019757;28;20041;-84
2021/05/21 10:31:39;;;;;;;2.78;1.45;;;19.30;94.40;;;;;;5020790;28;20044;-82
2021/05/21 10:37:35;;;;;;;2.83;1.40;;;19.50;94.90;;;;;;5018740;28;20068;-84
2021/05/21 10:43:24;;;;;;;4.40;1.50;;;19.40;94.80;;;;;;5021180;28;20073;-84
2021/05/21 10:53:14;;;;;;;2.65;1.38;;;19.50;94.70;;;;;;5019623;28;20110;-83
2021/05/21 10:59:04;;;;;;;1.25;1.13;;;19.40;94.20;;;;;;5022307;28;20081;-84
2021/05/21 11:04:55;;;;;;;4.20;1.33;;;19.20;94.40;;;;;;5021225;28;20061;-84
2021/05/21 11:10:46;;;;;;;2.40;1.48;;;19.10;94.50;;;;;;5022202;28;20060;-86
2021/05/21 11:16:37;;;;;;;2.83;1.60;;;18.80;94.40;;;;;;5023356;28;20069;-85
2021/05/21 11:22:32;;;;;;;3.65;1.77;;;18.70;94.50;;;;;;5022091;28;20033;-84
2021/05/21 11:28:20;;;;;;;3.92;1.83;;;18.10;93.50;;;;;;5021092;28;20029;-83
2021/05/21 11:34:11;;;;;;;4.65;2.10;;;17.40;93.50;;;;;;5021499;28;20036;-84
2021/05/21 11:40:05;;;;;;;2.97;1.42;;;17.50;94.80;;;;;;5022745;28;20036;-84
2021/05/21 11:45:58;;;;;;;3.15;1.80;;;18.00;95.30;;;;;;5021363;28;20072;-84
2021/05/21 11:55:48;;;;;;;1.80;1.40;;;18.90;95.20;;;;;;5024092;28;20048;-84
2021/05/21 12:01:38;;;;;;;2.15;1.50;;;19.10;95.00;;;;;;5025664;28;20068;-84
2021/05/21 12:07:27;;;;;;;1.63;1.30;;;20.00;95.70;;;;;;5029324;28;20044;-84
2021/05/21 12:13:16;;;;;;;1.70;1.30;;;20.80;95.80;;;;;;5024681;28;20088;-84
2021/05/21 12:19:05;;;;;;;3.72;1.60;;;21.00;94.20;;;;;;5027711;28;20044;-85
2021/05/21 12:24:57;;;;;;;1.42;1.25;;;20.90;94.50;;;;;;5024207;28;20041;-83
2021/05/21 12:30:45;;;;;;;5.50;1.58;;;21.20;94.10;;;;;;5024968;28;20084;-84
2021/05/21 12:36:35;;;;;;;2.67;1.45;;;21.00;94.10;;;;;;5024472;28;20041;-84
2021/05/21 12:42:24;;;;;;;3.63;1.42;;;21.40;94.00;;;;;;5024089;28;20378;-85
2021/05/21 12:48:13;;;;;;;3.53;1.88;;;21.80;94.40;;;;;;5023351;28;20033;-85
2021/05/21 12:58:03;;;;;;;2.33;1.35;;;22.70;93.30;;;;;;5025672;28;20064;-85
2021/05/21 13:03:56;;;;;;;3.63;1.45;;;22.20;91.70;;;;;;5025815;28;20049;-85
2021/05/21 13:09:45;;;;;;;2.78;1.20;;;21.80;92.60;;;;;;5023203;28;20366;-83
2021/05/21 13:15:41;;;;;;;1.63;1.33;;;21.60;92.90;;;;;;5023895;28;20486;-86
2021/05/21 13:21:29;;;;;;;2.10;1.35;;;21.20;92.50;;;;;;5024153;28;20025;-85
2021/05/21 13:27:26;;;;;;;5.20;1.60;;;21.20;92.90;;;;;;5024163;28;20509;-85
2021/05/21 13:33:14;;;;;;;2.88;1.77;;;21.30;92.90;;;;;;5023221;28;20065;-85
2021/05/21 13:39:04;;;;;;;2.67;1.70;;;20.70;91.50;;;;;;5023690;28;20453;-84
2021/05/21 13:44:53;;;;;;;3.03;1.42;;;20.30;92.50;;;;;;5021909;28;20045;-84
2021/05/21 14:01:33;;;;;;;3.45;1.77;;;19.50;92.50;;;;;;4977737;28;20498;-84
2021/05/21 14:07:21;;;;;;;4.18;1.95;;;19.40;93.00;;;;;;4980813;28;20065;-84
2021/05/21 14:13:08;;;;;;;2.30;1.40;;;19.30;93.30;;;;;;4981607;28;20054;-85
2021/05/21 14:18:56;;;;;;;1.63;1.15;;;19.10;93.10;;;;;;4974197;28;20037;-84
2021/05/21 14:24:44;;;;;;;1.98;1.30;;;19.20;93.40;;;;;;4973291;28;20077;-84
2021/05/21 14:30:33;;;;;;;3.20;1.40;;;19.10;93.40;;;;;;4982807;28;20030;-84
2021/05/21 14:36:22;;;;;;;2.70;1.25;;;18.90;93.40;;;;;;4994245;28;20108;-84
2021/05/21 14:42:11;;;;;;;6.78;2.47;;;18.90;93.70;;;;;;4994246;28;20069;-84
2021/05/21 14:48:00;;;;;;;1.77;1.38;;;18.90;93.70;;;;;;4994164;28;20541;-84
2021/05/21 14:53:48;;;;;;;2.00;1.40;;;18.70;93.60;;;;;;4994161;28;20033;-83
2021/05/21 15:03:39;;;;;;;1.40;1.10;;;18.70;93.60;;;;;;5013817;28;20445;-84
2021/05/21 15:09:29;;;;;;;1.80;1.15;;;18.50;93.50;;;;;;5013541;28;20037;-84
2021/05/21 15:27:18;;;;;;;2.60;1.17;;;18.80;94.10;;;;;;5017549;28;20080;-84
2021/05/21 15:33:07;;;;;;;1.15;1.10;;;18.60;93.00;;;;;;5017325;28;20036;-84
2021/05/21 15:38:55;;;;;;;3.00;1.60;;;18.30;93.20;;;;;;5017928;28;20025;-84
2021/05/21 15:57:55;;;;;;;4.50;1.40;;;17.80;93.60;;;;;;5016869;28;20041;-85
2021/05/21 16:03:08;;;;;;;8.88;6.18;;;17.70;93.80;;;;;;5016702;28;20037;-85
2021/05/21 16:08:56;;;;;;;2.00;1.38;;;17.60;93.40;;;;;;5017050;28;20057;-86
2021/05/21 16:14:54;;;;;;;2.28;1.33;;;17.50;93.60;;;;;;5016536;28;20044;-88
2021/05/21 16:20:51;;;;;;;1.25;1.10;;;17.40;93.60;;;;;;5021542;28;20108;-87
2021/05/21 16:26:42;;;;;;;2.55;1.60;;;17.20;93.70;;;;;;5016186;28;20045;-86
2021/05/21 16:32:38;;;;;;;1.90;1.33;;;17.10;93.80;;;;;;5015592;28;20125;-87
2021/05/21 16:38:28;;;;;;;3.90;1.40;;;17.00;93.50;;;;;;5016028;28;20117;-85
2021/05/21 16:44:17;;;;;;;2.30;1.42;;;16.90;93.70;;;;;;5015683;28;20137;-87
2021/05/21 16:50:05;;;;;;;1.45;1.20;;;16.60;93.90;;;;;;5015440;28;20069;-86
2021/05/21 16:55:55;;;;;;;2.67;1.50;;;16.50;94.00;;;;;;5015694;28;20646;-85
2021/05/21 17:05:39;;;;;;;2.28;1.23;;;16.50;93.80;;;;;;5015379;28;20143;-86
2021/05/21 17:11:29;;;;;;;3.40;1.52;;;16.40;94.00;;;;;;5015060;28;20060;-87
2021/05/21 17:29:51;;;;;;;1.83;1.40;;;16.10;94.50;;;;;;5015030;28;20064;-87
2021/05/21 17:41:56;;;;;;;2.25;1.20;;;17.80;94.10;;;;;;5014310;28;20079;-87
2021/05/21 17:53:50;;;;;;;3.15;1.50;;;17.20;93.80;;;;;;5014473;28;20048;-86
2021/05/21 18:00:00;;;;;;;1.98;1.10;;;16.90;93.60;;;;;;5014035;28;20025;-87
2021/05/21 18:11:59;;;;;;;6.03;2.30;;;16.50;93.80;;;;;;5013956;28;20072;-87
2021/05/21 18:18:14;;;;;;;6.30;3.15;;;16.10;93.60;;;;;;5013670;28;20095;-87
2021/05/21 18:24:26;;;;;;;2.50;1.50;;;15.90;93.70;;;;;;5013890;28;20111;-87
2021/05/21 18:54:31;;;;;;;2.90;1.50;;;14.70;93.90;;;;;;5013730;28;20044;-87
2021/05/21 19:00:32;;;;;;;3.75;1.58;;;14.50;94.00;;;;;;5024952;28;20037;-88
2021/05/21 19:12:58;;;;;;;2.75;1.55;;;14.30;94.10;;;;;;5020309;28;20072;-87
2021/05/21 19:18:52;;;;;;;2.63;1.65;;;14.20;94.20;;;;;;5019754;28;20520;-87
2021/05/21 19:24:50;;;;;;;3.55;1.40;;;14.10;94.20;;;;;;5019807;28;20049;-87
2021/05/21 19:30:53;;;;;;;1.83;1.50;;;13.90;94.30;;;;;;5019740;28;20049;-88
2021/05/21 20:13:29;;;;;;;2.80;1.70;;;13.50;94.50;;;;;;5016374;28;20544;-87
2021/05/21 20:19:26;;;;;;;2.58;1.63;;;13.40;94.50;;;;;;5016380;28;20028;-87
2021/05/21 20:25:34;;;;;;;3.53;1.90;;;13.40;94.50;;;;;;5016003;28;20457;-88
2021/05/21 20:31:58;;;;;;;3.58;1.90;;;13.30;94.50;;;;;;5015990;28;20052;-88
2021/05/21 21:02:18;;;;;;;6.20;2.00;;;13.20;94.70;;;;;;5014723;28;20589;-85
2021/05/21 21:08:15;;;;;;;3.97;2.15;;;13.10;94.70;;;;;;5015282;28;20053;-85
2021/05/21 21:13:54;;;;;;;4.88;2.25;;;13.10;94.90;;;;;;5015431;28;19912;-84
2021/05/21 22:02:22;;;;;;;4.78;2.35;;;12.80;94.80;;;;;;5014656;28;20090;-88
2021/05/21 22:08:16;;;;;;;5.00;2.30;;;12.80;94.80;;;;;;5014395;28;20517;-85
2021/05/21 22:26:04;;;;;;;3.88;2.00;;;12.70;94.90;;;;;;5014253;28;20560;-86
2021/05/21 22:31:52;;;;;;;3.47;1.95;;;12.80;94.90;;;;;;5014080;28;20080;-86
2021/05/21 22:37:41;;;;;;;5.07;2.15;;;12.70;94.90;;;;;;5014186;28;20480;-87
2021/05/21 22:43:29;;;;;;;3.38;2.00;;;12.70;94.90;;;;;;5013743;28;20045;-86
2021/05/21 22:49:24;;;;;;;2.65;1.60;;;12.70;94.90;;;;;;5014129;28;20037;-87
2021/05/21 22:55:13;;;;;;;5.00;1.98;;;12.70;94.90;;;;;;5013992;28;20059;-86
2021/05/21 23:01:03;;;;;;;3.00;1.60;;;12.70;94.90;;;;;;5014016;28;20033;-87
2021/05/21 23:06:51;;;;;;;3.65;1.63;;;12.60;95.00;;;;;;4994237;28;20037;-87
2021/05/21 23:12:40;;;;;;;3.53;1.70;;;12.60;94.90;;;;;;4993910;28;20101;-87
2021/05/21 23:18:32;;;;;;;3.15;1.95;;;12.60;94.90;;;;;;4994088;28;20033;-87
2021/05/21 23:24:21;;;;;;;1.67;1.27;;;12.60;94.90;;;;;;4993985;28;20048;-88
2021/05/21 23:30:10;;;;;;;2.53;1.50;;;12.50;95.00;;;;;;4993845;28;20077;-86
2021/05/21 23:35:59;;;;;;;3.47;1.70;;;12.50;95.00;;;;;;4993980;28;20438;-86
2021/05/21 23:41:48;;;;;;;2.55;1.60;;;12.50;95.00;;;;;;4993933;28;20053;-86
2021/05/21 23:47:36;;;;;;;2.03;1.50;;;12.50;95.00;;;;;;4997366;28;20061;-83
2021/05/21 23:53:25;;;;;;;1.77;1.20;;;12.50;95.10;;;;;;4997288;28;20062;-86
2021/05/21 23:59:13;;;;;;;1.98;1.60;;;12.40;94.90;;;;;;4997423;28;20057;-85
